createdAt,value
2022-09-16T00:00:20.471Z,4.25
2022-09-16T00:02:47.709Z,4.93
2022-09-16T00:05:14.515Z,4.72
2022-09-16T00:07:41.071Z,5.75
2022-09-16T00:10:08.170Z,4.60
2022-09-16T00:12:34.718Z,5.35
2022-09-16T00:15:01.306Z,5.32
2022-09-16T00:17:30.029Z,5.38
2022-09-16T00:19:58.080Z,4.28
2022-09-16T00:22:24.958Z,4.63
2022-09-16T00:24:51.570Z,5.22
2022-09-16T00:27:18.085Z,5.65
2022-09-16T00:29:44.700Z,5.32
2022-09-16T00:32:11.486Z,5.88
2022-09-16T00:34:38.029Z,5.85
2022-09-16T00:37:07.328Z,8.13
2022-09-16T00:39:35.209Z,5.80
2022-09-16T00:42:03.720Z,4.72
2022-09-16T00:44:54.571Z,5.90
2022-09-16T00:47:46.805Z,8.55
2022-09-16T00:50:41.535Z,6.55
2022-09-16T00:53:17.973Z,5.05
2022-09-16T00:55:45.263Z,5.13
2022-09-16T00:58:23.768Z,7.50
2022-09-16T01:00:52.761Z,7.40
2022-09-16T01:03:20.413Z,6.40
2022-09-16T01:05:47.563Z,9.00
2022-09-16T01:08:14.191Z,5.40
2022-09-16T01:10:42.449Z,7.20
2022-09-16T01:13:12.826Z,6.85
2022-09-16T01:16:17.739Z,6.85
2022-09-16T01:18:52.853Z,7.72
2022-09-16T01:21:38.849Z,7.10
2022-09-16T01:24:11.030Z,6.10
2022-09-16T01:27:06.817Z,5.70
2022-09-16T01:30:06.412Z,7.10
2022-09-16T01:32:54.252Z,6.13
2022-09-16T01:35:25.626Z,7.32
2022-09-16T01:38:01.166Z,5.75
2022-09-16T01:40:55.509Z,7.32
2022-09-16T01:43:28.479Z,6.35
2022-09-16T01:46:27.871Z,7.18
2022-09-16T01:49:16.729Z,6.93
2022-09-16T01:52:16.856Z,7.45
2022-09-16T01:54:49.911Z,5.95
2022-09-16T01:57:26.399Z,6.93
2022-09-16T02:00:06.520Z,7.00
2022-09-16T02:02:51.028Z,8.65
2022-09-16T02:05:50.117Z,6.68
2022-09-16T02:08:26.199Z,6.32
2022-09-16T02:11:01.869Z,5.47
2022-09-16T02:13:34.271Z,5.97
2022-09-16T02:16:10.690Z,6.85
2022-09-16T02:18:41.166Z,6.13
2022-09-16T02:21:11.573Z,6.10
2022-09-16T02:23:43.914Z,4.30
2022-09-16T02:26:14.368Z,5.95
2022-09-16T02:28:44.012Z,5.93
2022-09-16T02:31:12.893Z,5.70
2022-09-16T02:33:53.180Z,5.63
2022-09-16T02:36:25.768Z,6.55
2022-09-16T02:39:16.351Z,5.45
2022-09-16T02:41:43.007Z,7.20
2022-09-16T02:44:10.873Z,7.25
2022-09-16T02:46:55.560Z,6.05
2022-09-16T02:49:30.977Z,7.07
2022-09-16T02:52:28.707Z,6.05
2022-09-16T02:55:18.115Z,6.47
2022-09-16T02:57:44.695Z,7.47
2022-09-16T03:00:11.374Z,11.60
2022-09-16T03:02:38.319Z,6.15
2022-09-16T03:05:06.020Z,5.82
2022-09-16T03:07:33.642Z,5.70
2022-09-16T03:10:00.281Z,5.55
2022-09-16T03:12:47.041Z,7.18
2022-09-16T03:15:31.726Z,7.18
2022-09-16T03:18:04.825Z,7.85
2022-09-16T03:20:40.524Z,6.68
2022-09-16T03:23:28.858Z,5.95
2022-09-16T03:26:16.854Z,6.35
2022-09-16T03:28:54.993Z,5.63
2022-09-16T03:31:30.743Z,8.18
2022-09-16T03:34:21.400Z,6.00
2022-09-16T03:36:53.479Z,6.05
2022-09-16T03:39:22.236Z,7.65
2022-09-16T03:41:49.435Z,12.52
2022-09-16T03:44:16.019Z,6.45
2022-09-16T03:46:42.974Z,7.75
2022-09-16T03:49:10.847Z,7.25
2022-09-16T03:51:37.377Z,6.32
2022-09-16T03:54:04.629Z,6.75
2022-09-16T03:56:31.146Z,5.55
2022-09-16T03:58:57.734Z,6.00
2022-09-16T04:01:24.517Z,7.00
2022-09-16T04:03:52.332Z,7.53
2022-09-16T04:06:18.927Z,6.85
2022-09-16T04:08:45.539Z,6.65
2022-09-16T04:11:12.089Z,8.73
2022-09-16T04:13:38.616Z,6.28
2022-09-16T04:16:05.477Z,11.48
2022-09-16T04:18:33.859Z,6.50
2022-09-16T04:21:03.509Z,7.43
2022-09-16T04:23:31.232Z,7.32
2022-09-16T04:26:00.023Z,6.55
2022-09-16T04:28:27.363Z,6.82
2022-09-16T04:30:54.005Z,6.95
2022-09-16T04:33:20.623Z,7.57
2022-09-16T04:35:47.883Z,8.80
2022-09-16T04:38:14.429Z,7.65
2022-09-16T04:40:40.951Z,8.85
2022-09-16T04:43:07.538Z,6.78
2022-09-16T04:45:34.049Z,8.43
2022-09-16T04:48:00.722Z,7.97
2022-09-16T04:50:27.745Z,6.80
2022-09-16T04:52:54.910Z,7.80
2022-09-16T04:55:24.444Z,9.55
2022-09-16T04:57:51.307Z,9.43
2022-09-16T05:00:18.381Z,7.85
2022-09-16T05:02:46.070Z,8.25
2022-09-16T05:05:13.178Z,8.73
2022-09-16T05:07:39.717Z,6.25
2022-09-16T05:10:06.780Z,8.63
2022-09-16T05:12:33.387Z,8.27
2022-09-16T05:14:59.929Z,10.23
2022-09-16T05:17:49.438Z,14.65
2022-09-16T05:20:14.207Z,8.63
2022-09-16T05:22:40.750Z,9.43
2022-09-16T05:25:07.616Z,9.15
2022-09-16T05:27:34.349Z,9.38
2022-09-16T05:30:00.861Z,10.00
2022-09-16T05:32:27.530Z,8.27
2022-09-16T05:34:54.863Z,9.40
2022-09-16T05:37:21.377Z,9.77
2022-09-16T05:39:48.110Z,8.95
2022-09-16T05:42:14.739Z,9.82
2022-09-16T05:44:41.271Z,9.25
2022-09-16T05:47:07.796Z,10.60
2022-09-16T05:49:34.346Z,10.13
2022-09-16T05:52:00.920Z,10.15
2022-09-16T05:54:27.978Z,11.38
2022-09-16T05:56:54.591Z,9.52
2022-09-16T05:59:21.407Z,12.18
2022-09-16T06:01:48.031Z,11.93
2022-09-16T06:04:16.020Z,11.80
2022-09-16T06:06:46.894Z,11.15
2022-09-16T06:09:31.656Z,12.10
2022-09-16T06:12:01.915Z,12.73
2022-09-16T06:14:29.190Z,12.00
2022-09-16T06:16:56.104Z,11.48
2022-09-16T06:19:22.708Z,10.20
2022-09-16T06:21:49.347Z,11.93
2022-09-16T06:24:17.646Z,11.77
2022-09-16T06:26:45.782Z,11.65
2022-09-16T06:29:13.420Z,11.10
2022-09-16T06:31:40.655Z,11.10
2022-09-16T06:34:08.630Z,11.95
2022-09-16T06:36:40.367Z,11.50
2022-09-16T06:39:12.260Z,11.27
2022-09-16T06:41:38.779Z,9.95
2022-09-16T06:44:05.291Z,10.68
2022-09-16T06:46:31.854Z,10.35
2022-09-16T06:49:01.547Z,13.20
2022-09-16T06:51:32.238Z,13.50
2022-09-16T06:54:07.048Z,9.75
2022-09-16T06:56:36.117Z,9.45
2022-09-16T06:59:03.599Z,7.95
2022-09-16T07:01:31.803Z,10.80
2022-09-16T07:04:03.652Z,8.80
2022-09-16T07:06:57.402Z,8.48
2022-09-16T07:09:17.691Z,8.23
2022-09-16T07:11:44.643Z,8.02
2022-09-16T07:14:11.171Z,7.78
2022-09-16T07:16:37.828Z,7.65
2022-09-16T07:19:05.351Z,7.32
2022-09-16T07:21:31.961Z,5.97
2022-09-16T07:24:01.107Z,6.57
2022-09-16T07:26:31.052Z,7.97
2022-09-16T07:29:01.152Z,7.43
2022-09-16T07:31:30.739Z,6.80
2022-09-16T07:34:03.497Z,5.88
2022-09-16T07:36:42.898Z,5.85
2022-09-16T07:39:09.637Z,6.10
2022-09-16T07:41:38.380Z,8.18
2022-09-16T07:44:07.445Z,7.53
2022-09-16T07:46:36.025Z,6.97
2022-09-16T07:49:05.215Z,10.02
2022-09-16T07:51:31.819Z,5.28
2022-09-16T07:54:03.532Z,6.20
2022-09-16T07:56:34.479Z,5.38
2022-09-16T07:59:02.721Z,6.25
2022-09-16T08:01:31.234Z,4.65
2022-09-16T08:03:58.462Z,6.15
2022-09-16T08:06:27.526Z,9.88
2022-09-16T08:08:57.683Z,4.50
2022-09-16T08:11:30.459Z,11.55
2022-09-16T08:14:00.559Z,6.38
2022-09-16T08:16:27.865Z,7.90
2022-09-16T08:18:56.043Z,6.70
2022-09-16T08:21:25.708Z,4.53
2022-09-16T08:23:52.562Z,5.47
2022-09-16T08:26:20.529Z,5.85
2022-09-16T08:29:07.801Z,6.40
2022-09-16T08:31:36.211Z,7.70
2022-09-16T08:34:03.034Z,7.20
2022-09-16T08:36:29.606Z,6.25
2022-09-16T08:38:56.893Z,4.78
2022-09-16T08:41:29.234Z,5.82
2022-09-16T08:44:29.938Z,8.73
2022-09-16T08:47:06.271Z,5.60
2022-09-16T08:49:46.277Z,5.18
2022-09-16T08:52:30.179Z,3.53
2022-09-16T08:55:04.532Z,4.65
2022-09-16T08:57:38.059Z,3.92
2022-09-16T09:00:15.070Z,7.25
2022-09-16T09:02:59.023Z,4.13
2022-09-16T09:05:41.442Z,6.43
2022-09-16T09:08:32.259Z,3.92
2022-09-16T09:11:04.662Z,4.20
2022-09-16T09:13:53.117Z,4.15
2022-09-16T09:16:36.219Z,3.17
2022-09-16T09:19:02.785Z,4.03
2022-09-16T09:21:35.394Z,4.47
2022-09-16T09:24:17.895Z,6.00
2022-09-16T09:27:15.171Z,4.43
2022-09-16T09:29:56.622Z,4.28
2022-09-16T09:32:23.160Z,4.30
2022-09-16T09:35:14.522Z,3.63
2022-09-16T09:37:43.917Z,4.13
2022-09-16T09:40:10.459Z,3.40
2022-09-16T09:42:47.349Z,4.38
2022-09-16T09:45:27.170Z,5.00
2022-09-16T09:48:15.319Z,3.83
2022-09-16T09:50:45.100Z,4.50
2022-09-16T09:53:11.592Z,4.07
2022-09-16T09:55:40.858Z,4.05
2022-09-16T09:58:32.185Z,5.80
2022-09-16T10:00:58.830Z,4.40
2022-09-16T10:03:28.073Z,5.60
2022-09-16T10:05:55.009Z,3.72
2022-09-16T10:08:21.749Z,3.83
2022-09-16T10:10:56.436Z,4.07
2022-09-16T10:13:25.839Z,4.27
2022-09-16T10:16:14.594Z,3.85
2022-09-16T10:18:42.427Z,3.15
2022-09-16T10:21:16.904Z,3.22
2022-09-16T10:23:55.200Z,2.92
2022-09-16T10:26:25.077Z,4.30
2022-09-16T10:29:13.614Z,3.65
2022-09-16T10:31:41.952Z,3.88
2022-09-16T10:34:29.438Z,3.22
2022-09-16T10:37:17.367Z,5.72
2022-09-16T10:39:57.163Z,6.57
2022-09-16T10:42:26.603Z,2.53
2022-09-16T10:44:57.282Z,3.47
2022-09-16T10:47:28.346Z,3.63
2022-09-16T10:49:57.832Z,3.67
2022-09-16T10:52:27.416Z,3.30
2022-09-16T10:54:55.002Z,4.07
2022-09-16T10:57:30.943Z,11.77
2022-09-16T10:59:57.461Z,7.00
2022-09-16T11:02:52.748Z,3.40
2022-09-16T11:05:28.925Z,5.50
2022-09-16T11:07:55.462Z,3.35
2022-09-16T11:10:34.325Z,3.78
2022-09-16T11:13:19.175Z,3.58
2022-09-16T11:16:19.516Z,4.95
2022-09-16T11:19:01.977Z,2.80
2022-09-16T11:21:31.457Z,3.53
2022-09-16T11:24:16.380Z,3.03
2022-09-16T11:26:54.199Z,3.55
2022-09-16T11:29:27.459Z,5.13
2022-09-16T11:32:12.601Z,4.38
2022-09-16T11:34:51.095Z,4.47
2022-09-16T11:37:38.633Z,3.45
2022-09-16T11:40:31.462Z,5.70
2022-09-16T11:43:32.992Z,4.18
2022-09-16T11:46:24.176Z,3.83
2022-09-16T11:49:13.946Z,5.47
2022-09-16T11:51:40.505Z,3.50
2022-09-16T11:54:31.463Z,8.55
2022-09-16T11:57:03.909Z,3.83
2022-09-16T11:59:48.943Z,4.35
2022-09-16T12:02:31.230Z,3.50
2022-09-16T12:05:21.428Z,5.28
2022-09-16T12:08:02.524Z,3.05
2022-09-16T12:10:46.787Z,2.40
2022-09-16T12:13:19.895Z,3.72
2022-09-16T12:16:00.029Z,4.55
2022-09-16T12:18:44.397Z,6.10
2022-09-16T12:21:14.449Z,4.35
2022-09-16T12:23:46.125Z,3.45
2022-09-16T12:26:21.196Z,4.38
2022-09-16T12:29:02.434Z,2.97
2022-09-16T12:32:01.409Z,2.65
2022-09-16T12:34:33.943Z,5.57
2022-09-16T12:37:10.585Z,3.88
2022-09-16T12:39:37.208Z,3.95
2022-09-16T12:42:06.445Z,2.60
2022-09-16T12:44:39.041Z,3.25
2022-09-16T12:47:14.283Z,5.43
2022-09-16T12:50:22.879Z,2.35
2022-09-16T12:53:04.425Z,3.25
2022-09-16T12:55:52.470Z,2.40
2022-09-16T12:58:24.661Z,3.28
2022-09-16T13:01:16.736Z,2.78
2022-09-16T13:03:50.903Z,2.83
2022-09-16T13:06:34.436Z,3.05
2022-09-16T13:09:26.692Z,3.70
2022-09-16T13:14:47.300Z,3.95
2022-09-16T13:17:14.284Z,2.95
2022-09-16T13:19:52.988Z,4.10
2022-09-16T13:22:22.140Z,15.35
2022-09-16T13:25:17.088Z,2.42
2022-09-16T13:27:56.650Z,2.75
2022-09-16T13:30:32.685Z,4.03
2022-09-16T13:33:02.120Z,3.95
2022-09-16T13:35:31.392Z,2.70
2022-09-16T13:38:00.509Z,3.42
2022-09-16T13:40:30.162Z,3.42
2022-09-16T13:43:08.834Z,3.30
2022-09-16T13:45:38.688Z,6.65
2022-09-16T13:48:16.748Z,3.45
2022-09-16T13:50:51.734Z,2.50
2022-09-16T13:53:28.782Z,7.45
2022-09-16T13:56:05.982Z,2.58
2022-09-16T13:59:15.917Z,3.30
2022-09-16T14:02:04.166Z,2.58
2022-09-16T14:05:02.713Z,3.50
2022-09-16T14:07:47.779Z,3.35
2022-09-16T14:10:38.055Z,4.17
2022-09-16T14:13:12.012Z,2.17
2022-09-16T14:15:45.414Z,2.42
2022-09-16T14:18:20.109Z,2.25
2022-09-16T14:21:06.466Z,2.47
2022-09-16T14:23:33.897Z,1.80
2022-09-16T14:26:29.149Z,2.50
2022-09-16T14:29:03.689Z,3.22
2022-09-16T14:31:32.517Z,2.60
2022-09-16T14:34:08.436Z,2.40
2022-09-16T14:36:38.773Z,3.30
2022-09-16T14:39:08.280Z,3.00
2022-09-16T14:41:43.487Z,2.72
2022-09-16T14:44:22.703Z,3.05
2022-09-16T14:47:09.434Z,2.60
2022-09-16T14:49:37.939Z,2.63
2022-09-16T14:52:04.835Z,2.17
2022-09-16T14:54:32.229Z,2.55
2022-09-16T14:57:00.077Z,3.25
2022-09-16T14:59:35.591Z,2.13
2022-09-16T15:02:14.872Z,3.13
2022-09-16T15:04:47.095Z,1.90
2022-09-16T15:07:24.714Z,2.25
2022-09-16T15:10:23.923Z,2.40
2022-09-16T15:12:57.151Z,2.30
2022-09-16T15:15:30.772Z,3.40
2022-09-16T15:18:06.402Z,4.95
2022-09-16T15:20:37.781Z,2.35
2022-09-16T15:23:10.895Z,2.00
2022-09-16T15:25:39.425Z,5.20
2022-09-16T15:28:17.210Z,3.60
2022-09-16T15:30:54.923Z,2.22
2022-09-16T15:33:34.521Z,2.60
2022-09-16T15:36:02.057Z,2.63
2022-09-16T15:38:30.030Z,4.28
2022-09-16T15:41:05.557Z,2.72
2022-09-16T15:43:41.681Z,3.13
2022-09-16T15:46:20.971Z,4.53
2022-09-16T15:48:58.472Z,2.47
2022-09-16T15:51:39.541Z,2.92
2022-09-16T15:54:47.813Z,2.75
2022-09-16T15:57:38.535Z,2.97
2022-09-16T16:00:16.051Z,3.55
2022-09-16T16:03:17.990Z,4.10
2022-09-16T16:05:51.690Z,2.97
2022-09-16T16:08:58.293Z,3.20
2022-09-16T16:11:25.662Z,3.15
2022-09-16T16:13:52.493Z,3.10
2022-09-16T16:16:19.687Z,3.08
2022-09-16T16:18:46.593Z,3.80
2022-09-16T16:21:15.967Z,3.53
2022-09-16T16:23:43.503Z,3.78
2022-09-16T16:26:11.379Z,3.97
2022-09-16T16:28:38.777Z,3.38
2022-09-16T16:31:16.936Z,3.88
2022-09-16T16:33:48.174Z,3.10
2022-09-16T16:36:16.929Z,8.32
2022-09-16T16:38:45.495Z,3.70
2022-09-16T16:41:13.520Z,3.55
2022-09-16T16:43:40.155Z,4.88
2022-09-16T16:46:07.018Z,4.60
2022-09-16T16:48:34.204Z,3.92
2022-09-16T16:51:06.138Z,5.53
2022-09-16T16:53:32.835Z,5.75
2022-09-16T16:56:14.491Z,6.80
2022-09-16T16:58:43.095Z,5.63
2022-09-16T17:01:12.804Z,6.10
2022-09-16T17:03:41.041Z,5.13
2022-09-16T17:06:07.618Z,8.57
2022-09-16T17:08:35.615Z,5.68
2022-09-16T17:11:17.045Z,7.35
2022-09-16T17:13:47.482Z,8.43
2022-09-16T17:16:17.819Z,11.80
2022-09-16T17:18:44.577Z,9.63
2022-09-16T17:21:20.070Z,7.80
2022-09-16T17:23:46.824Z,8.77
2022-09-16T17:26:14.447Z,8.25
2022-09-16T17:28:43.343Z,6.78
2022-09-16T17:31:11.305Z,11.55
2022-09-16T17:33:37.918Z,7.13
2022-09-16T17:36:07.235Z,8.27
2022-09-16T17:38:34.394Z,7.32
2022-09-16T17:41:09.471Z,6.90
2022-09-16T17:43:36.478Z,6.20
2022-09-16T17:46:04.973Z,5.10
2022-09-16T17:48:32.378Z,6.13
2022-09-16T17:50:59.774Z,8.27
2022-09-16T17:53:26.427Z,5.93
2022-09-16T17:55:53.134Z,5.68
2022-09-16T17:58:19.657Z,6.55
2022-09-16T18:00:46.203Z,5.75
2022-09-16T18:03:13.478Z,8.60
2022-09-16T18:05:40.404Z,5.82
2022-09-16T18:08:06.999Z,4.80
2022-09-16T18:10:33.691Z,7.25
2022-09-16T18:13:00.699Z,6.00
2022-09-16T18:15:27.287Z,8.10
2022-09-16T18:17:54.492Z,6.63
2022-09-16T18:20:21.434Z,7.50
2022-09-16T18:22:48.594Z,9.50
2022-09-16T18:25:15.215Z,8.95
2022-09-16T18:27:44.160Z,6.78
2022-09-16T18:30:11.687Z,7.43
2022-09-16T18:32:38.254Z,7.22
2022-09-16T18:35:05.219Z,7.10
2022-09-16T18:37:31.723Z,7.90
2022-09-16T18:39:58.319Z,6.13
2022-09-16T18:42:25.076Z,7.10
2022-09-16T18:44:51.902Z,5.05
2022-09-16T18:47:18.473Z,5.70
2022-09-16T18:49:45.011Z,5.88
2022-09-16T18:52:11.614Z,7.32
2022-09-16T18:54:38.313Z,8.57
2022-09-16T18:57:04.874Z,8.23
2022-09-16T18:59:34.132Z,8.27
2022-09-16T19:02:03.588Z,8.88
2022-09-16T19:04:33.107Z,8.00
2022-09-16T19:07:07.374Z,9.98
2022-09-16T19:09:36.413Z,8.40
2022-09-16T19:12:04.069Z,8.25
2022-09-16T19:14:30.782Z,9.57
2022-09-16T19:16:57.381Z,7.88
2022-09-16T19:19:24.038Z,6.55
2022-09-16T19:21:51.110Z,8.73
2022-09-16T19:24:20.417Z,7.30
2022-09-16T19:26:48.019Z,6.22
2022-09-16T19:29:16.039Z,10.02
2022-09-16T19:31:44.310Z,7.13
2022-09-16T19:34:12.201Z,7.00
2022-09-16T19:36:39.928Z,6.68
2022-09-16T19:39:07.295Z,6.50
2022-09-16T19:41:36.275Z,8.38
2022-09-16T19:44:06.045Z,7.80
2022-09-16T19:46:36.362Z,7.00
2022-09-16T19:49:03.807Z,7.57
2022-09-16T19:51:30.375Z,5.75
2022-09-16T19:53:58.431Z,6.97
2022-09-16T19:56:29.893Z,6.35
2022-09-16T19:58:56.492Z,6.13
2022-09-16T20:01:25.560Z,7.63
2022-09-16T20:03:52.456Z,6.60
2022-09-16T20:06:24.222Z,6.45
2022-09-16T20:08:56.619Z,19.02
2022-09-16T20:11:25.817Z,9.00
2022-09-16T20:14:01.761Z,6.47
2022-09-16T20:18:58.043Z,5.68
2022-09-16T20:21:26.634Z,6.80
2022-09-16T20:23:54.325Z,6.53
2022-09-16T20:26:22.018Z,6.22
2022-09-16T20:28:50.942Z,7.05
2022-09-16T20:31:32.827Z,7.03
2022-09-16T20:34:01.231Z,7.00
2022-09-16T20:36:32.193Z,8.27
2022-09-16T20:38:59.852Z,6.55
2022-09-16T20:41:29.347Z,6.97
2022-09-16T20:43:56.699Z,7.03
2022-09-16T20:46:26.775Z,5.18
2022-09-16T20:48:54.603Z,5.95
2022-09-16T20:51:23.592Z,7.25
2022-09-16T20:53:57.301Z,6.50
2022-09-16T20:56:24.925Z,6.53
2022-09-16T20:58:51.977Z,6.70
2022-09-16T21:01:22.898Z,7.20
2022-09-16T21:03:58.213Z,6.43
2022-09-16T21:06:25.791Z,7.35
2022-09-16T21:08:53.987Z,5.53
2022-09-16T21:11:20.948Z,6.38
2022-09-16T21:13:56.522Z,6.20
2022-09-16T21:16:23.642Z,6.90
2022-09-16T21:18:55.175Z,6.82
2022-09-16T21:21:24.481Z,5.60
2022-09-16T21:23:52.793Z,6.10
2022-09-16T21:26:27.236Z,6.53
2022-09-16T21:28:54.920Z,6.35
2022-09-16T21:31:21.520Z,6.57
2022-09-16T21:33:51.784Z,9.52
2022-09-16T21:36:20.226Z,6.18
2022-09-16T21:38:46.995Z,5.95
2022-09-16T21:41:16.147Z,6.35
2022-09-16T21:43:55.584Z,6.30
2022-09-16T21:46:30.332Z,5.65
2022-09-16T21:49:01.151Z,9.38
2022-09-16T21:51:35.368Z,7.65
2022-09-16T21:54:03.810Z,5.45
2022-09-16T21:56:31.375Z,7.32
2022-09-16T21:58:58.420Z,6.70
2022-09-16T22:01:30.316Z,5.25
2022-09-16T22:03:58.403Z,6.15
2022-09-16T22:06:28.275Z,7.97
2022-09-16T22:08:57.251Z,7.05
2022-09-16T22:11:25.437Z,6.63
2022-09-16T22:13:53.894Z,9.40
2022-09-16T22:16:27.080Z,5.65
2022-09-16T22:18:55.638Z,5.85
2022-09-16T22:21:23.183Z,6.20
2022-09-16T22:23:50.297Z,6.78
2022-09-16T22:26:19.633Z,7.72
2022-09-16T22:28:46.399Z,5.35
2022-09-16T22:31:18.874Z,7.05
2022-09-16T22:33:46.953Z,5.43
2022-09-16T22:36:16.639Z,5.05
2022-09-16T22:39:11.210Z,6.35
2022-09-16T22:41:37.932Z,4.93
2022-09-16T22:44:04.763Z,6.47
2022-09-16T22:46:34.312Z,5.82
2022-09-16T22:49:01.652Z,7.20
2022-09-16T22:51:28.980Z,5.53
2022-09-16T22:53:55.721Z,6.75
2022-09-16T22:56:25.481Z,7.05
2022-09-16T22:58:54.233Z,5.78
2022-09-16T23:01:23.758Z,6.20
2022-09-16T23:03:55.852Z,5.60
2022-09-16T23:06:24.691Z,6.50
2022-09-16T23:08:52.335Z,6.25
2022-09-16T23:11:25.334Z,6.80
2022-09-16T23:13:54.862Z,6.20
2022-09-16T23:16:27.045Z,6.45
2022-09-16T23:18:57.727Z,5.57
2022-09-16T23:21:25.485Z,6.93
2022-09-16T23:23:54.556Z,8.20
2022-09-16T23:26:27.161Z,5.85
2022-09-16T23:28:56.204Z,5.57
2022-09-16T23:31:26.615Z,4.78
2022-09-16T23:33:54.201Z,6.35
2022-09-16T23:36:21.573Z,5.93
2022-09-16T23:38:48.405Z,5.57
2022-09-16T23:41:20.674Z,6.57
2022-09-16T23:43:48.958Z,7.38
2022-09-16T23:46:18.023Z,7.28
2022-09-16T23:48:45.194Z,7.30
2022-09-16T23:51:12.605Z,6.63
2022-09-16T23:53:42.177Z,9.63
2022-09-16T23:56:15.823Z,7.97
2022-09-16T23:58:42.493Z,7.15
